createdAt,value
2022-11-28T00:01:22.223Z,60.44
2022-11-28T00:03:49.017Z,60.88
2022-11-28T00:06:16.092Z,60.34
2022-11-28T00:08:43.258Z,60.17
2022-11-28T00:11:11.950Z,60.57
2022-11-28T00:13:39.335Z,60.78
2022-11-28T00:16:08.069Z,60.90
2022-11-28T00:18:35.772Z,60.39
2022-11-28T00:21:05.579Z,60.19
2022-11-28T00:23:33.151Z,60.86
2022-11-28T00:26:01.938Z,60.83
2022-11-28T00:28:28.537Z,60.89
2022-11-28T00:30:55.475Z,61.02
2022-11-28T00:33:22.293Z,60.86
2022-11-28T00:35:48.991Z,61.15
2022-11-28T00:38:15.802Z,61.30
2022-11-28T00:40:42.499Z,61.55
2022-11-28T00:43:09.156Z,61.54
2022-11-28T00:45:35.859Z,61.51
2022-11-28T00:48:02.660Z,61.58
2022-11-28T00:50:29.402Z,61.70
2022-11-28T00:52:56.015Z,61.62
2022-11-28T00:55:22.843Z,61.50
2022-11-28T00:57:49.566Z,61.41
2022-11-28T01:00:16.559Z,61.00
2022-11-28T01:02:43.349Z,60.83
2022-11-28T01:05:10.329Z,60.46
2022-11-28T01:07:37.269Z,60.44
2022-11-28T01:10:04.542Z,60.08
2022-11-28T01:12:31.202Z,60.48
2022-11-28T01:14:58.361Z,60.59
2022-11-28T01:17:25.158Z,60.92
2022-11-28T01:19:51.803Z,60.96
2022-11-28T01:22:18.506Z,61.52
2022-11-28T01:24:45.331Z,61.42
2022-11-28T01:27:11.952Z,61.27
2022-11-28T01:29:38.643Z,61.27
2022-11-28T01:32:05.502Z,61.31
2022-11-28T01:34:32.304Z,61.47
2022-11-28T01:37:00.109Z,61.69
2022-11-28T01:39:28.208Z,61.56
2022-11-28T01:41:54.862Z,61.45
2022-11-28T01:44:21.422Z,61.05
2022-11-28T01:46:48.161Z,61.13
2022-11-28T01:49:21.488Z,61.28
2022-11-28T01:51:54.045Z,61.30
2022-11-28T01:54:23.975Z,61.20
2022-11-28T01:56:56.005Z,61.21
2022-11-28T01:59:26.496Z,61.08
2022-11-28T02:01:53.420Z,61.32
2022-11-28T02:04:20.401Z,60.96
2022-11-28T02:06:47.072Z,60.91
2022-11-28T02:09:15.482Z,60.85
2022-11-28T02:11:48.130Z,60.97
2022-11-28T02:14:45.845Z,60.80
2022-11-28T02:17:28.576Z,60.94
2022-11-28T02:20:32.504Z,60.58
2022-11-28T02:23:11.175Z,60.82
2022-11-28T02:25:45.683Z,60.56
2022-11-28T02:28:18.295Z,60.69
2022-11-28T02:31:22.614Z,60.95
2022-11-28T02:33:53.597Z,60.42
2022-11-28T02:36:25.175Z,60.37
2022-11-28T02:39:31.846Z,60.40
2022-11-28T02:42:15.424Z,60.54
2022-11-28T02:44:55.737Z,60.51
2022-11-28T02:47:30.842Z,60.57
2022-11-28T02:50:08.849Z,60.62
2022-11-28T02:53:00.148Z,60.84
2022-11-28T02:55:27.749Z,61.29
2022-11-28T02:57:55.178Z,61.15
2022-11-28T03:00:29.296Z,61.38
2022-11-28T03:03:20.087Z,61.33
2022-11-28T03:06:10.688Z,61.18
2022-11-28T03:09:01.944Z,61.35
2022-11-28T03:11:34.427Z,61.28
2022-11-28T03:14:18.825Z,61.21
2022-11-28T03:16:57.385Z,61.31
2022-11-28T03:19:39.763Z,61.40
2022-11-28T03:22:25.950Z,61.67
2022-11-28T03:25:24.842Z,61.55
2022-11-28T03:28:07.411Z,61.65
2022-11-28T03:30:57.234Z,61.89
2022-11-28T03:33:28.003Z,61.58
2022-11-28T03:36:02.042Z,61.65
2022-11-28T03:38:35.588Z,62.28
2022-11-28T03:41:10.301Z,62.08
2022-11-28T03:43:44.312Z,62.08
2022-11-28T03:46:15.867Z,61.98
2022-11-28T03:48:48.509Z,62.07
2022-11-28T03:51:24.462Z,62.15
2022-11-28T03:53:55.857Z,62.15
2022-11-28T03:56:38.090Z,62.39
2022-11-28T03:59:12.464Z,61.86
2022-11-28T04:02:16.966Z,62.09
2022-11-28T04:05:03.461Z,61.81
2022-11-28T04:07:45.459Z,61.93
2022-11-28T04:10:30.938Z,61.84
2022-11-28T04:13:16.392Z,61.59
2022-11-28T04:16:32.416Z,61.40
2022-11-28T04:19:08.725Z,61.65
2022-11-28T04:21:45.208Z,61.39
2022-11-28T04:24:17.680Z,61.39
2022-11-28T04:26:51.398Z,61.58
2022-11-28T04:29:22.711Z,61.54
2022-11-28T04:31:53.825Z,61.38
2022-11-28T04:34:22.924Z,61.39
2022-11-28T04:36:51.220Z,61.38
2022-11-28T04:39:22.188Z,61.37
2022-11-28T04:41:54.030Z,61.17
2022-11-28T04:44:39.194Z,61.47
2022-11-28T04:47:06.040Z,61.74
2022-11-28T04:49:33.739Z,61.67
2022-11-28T04:52:27.134Z,61.54
2022-11-28T04:55:12.052Z,61.31
2022-11-28T04:58:09.387Z,61.26
2022-11-28T05:00:37.446Z,60.98
2022-11-28T05:03:05.942Z,61.19
2022-11-28T05:05:42.968Z,61.15
2022-11-28T05:08:10.307Z,60.92
2022-11-28T05:10:37.352Z,61.13
2022-11-28T05:13:04.266Z,60.98
2022-11-28T05:15:30.958Z,61.29
2022-11-28T05:17:57.731Z,60.92
2022-11-28T05:20:24.851Z,61.02
2022-11-28T05:22:51.573Z,60.71
2022-11-28T05:25:18.574Z,60.69
2022-11-28T05:27:45.502Z,60.79
2022-11-28T05:30:13.070Z,61.26
2022-11-28T05:32:39.861Z,61.06
2022-11-28T05:35:06.751Z,60.60
2022-11-28T05:37:33.992Z,60.94
2022-11-28T05:40:00.946Z,61.19
2022-11-28T05:42:28.444Z,60.69
2022-11-28T05:44:55.133Z,60.74
2022-11-28T05:47:23.727Z,60.55
2022-11-28T05:49:50.439Z,61.01
2022-11-28T05:52:17.159Z,61.50
2022-11-28T05:54:44.023Z,61.48
2022-11-28T05:57:10.726Z,61.75
2022-11-28T05:59:37.690Z,61.76
2022-11-28T06:02:04.443Z,61.67
2022-11-28T06:04:31.428Z,62.19
2022-11-28T06:06:58.310Z,62.30
2022-11-28T06:09:26.188Z,62.43
2022-11-28T06:11:53.213Z,62.33
2022-11-28T06:14:20.115Z,62.46
2022-11-28T06:16:49.440Z,62.19
2022-11-28T06:19:16.137Z,62.00
2022-11-28T06:21:43.667Z,62.21
2022-11-28T06:24:10.868Z,62.23
2022-11-28T06:26:37.768Z,62.24
2022-11-28T06:29:04.560Z,62.44
2022-11-28T06:31:31.357Z,61.99
2022-11-28T06:33:58.658Z,61.99
2022-11-28T06:36:26.424Z,61.89
2022-11-28T06:38:54.190Z,61.87
2022-11-28T06:41:22.827Z,62.06
2022-11-28T06:43:57.193Z,61.91
2022-11-28T06:46:24.227Z,61.97
2022-11-28T06:48:52.174Z,62.08
2022-11-28T06:51:19.468Z,62.08
2022-11-28T06:53:46.191Z,61.99
2022-11-28T06:56:15.750Z,62.13
2022-11-28T06:58:43.054Z,62.62
2022-11-28T07:01:18.816Z,63.04
2022-11-28T07:03:46.737Z,63.19
2022-11-28T07:06:14.956Z,63.71
2022-11-28T07:08:42.425Z,64.39
2022-11-28T07:11:12.117Z,64.53
2022-11-28T07:13:39.817Z,65.52
2022-11-28T07:16:07.906Z,65.78
2022-11-28T07:18:34.884Z,66.10
2022-11-28T07:21:01.930Z,66.65
2022-11-28T07:23:28.619Z,66.68
2022-11-28T07:26:00.731Z,66.81
2022-11-28T07:28:28.710Z,67.06
2022-11-28T07:31:04.965Z,66.81
2022-11-28T07:33:33.693Z,67.43
2022-11-28T07:36:05.599Z,67.69
2022-11-28T07:38:32.725Z,67.40
2022-11-28T07:41:07.671Z,67.17
2022-11-28T07:43:34.728Z,66.94
2022-11-28T07:46:07.022Z,67.01
2022-11-28T07:48:34.944Z,66.89
2022-11-28T07:51:10.524Z,66.96
2022-11-28T07:53:37.954Z,66.89
2022-11-28T07:56:06.489Z,66.91
2022-11-28T07:58:34.171Z,66.60
2022-11-28T08:01:01.679Z,67.16
2022-11-28T08:03:28.360Z,67.23
2022-11-28T08:06:02.971Z,67.62
2022-11-28T08:08:30.127Z,67.76
2022-11-28T08:11:05.058Z,67.58
2022-11-28T08:13:32.599Z,67.29
2022-11-28T08:16:03.887Z,67.52
2022-11-28T08:18:30.607Z,67.33
2022-11-28T08:21:05.990Z,67.35
2022-11-28T08:23:34.061Z,67.60
2022-11-28T08:26:05.703Z,67.82
2022-11-28T08:28:32.638Z,67.64
2022-11-28T08:31:01.902Z,68.07
2022-11-28T08:33:28.672Z,67.78
2022-11-28T08:35:55.377Z,67.58
2022-11-28T08:38:22.082Z,67.72
2022-11-28T08:40:48.693Z,67.84
2022-11-28T08:43:15.417Z,67.89
2022-11-28T08:45:42.161Z,67.60
2022-11-28T08:48:08.869Z,67.84
2022-11-28T08:50:35.575Z,67.40
2022-11-28T08:53:07.746Z,67.79
2022-11-28T08:55:39.087Z,67.74
2022-11-28T08:58:08.540Z,67.21
2022-11-28T09:00:35.202Z,67.47
2022-11-28T09:03:02.309Z,67.54
2022-11-28T09:05:30.096Z,67.53
2022-11-28T09:07:57.194Z,67.38
2022-11-28T09:10:24.913Z,67.48
2022-11-28T09:12:52.262Z,67.31
2022-11-28T09:15:19.173Z,67.61
2022-11-28T09:17:46.505Z,67.14
2022-11-28T09:20:13.309Z,67.23
2022-11-28T09:22:40.716Z,67.51
2022-11-28T09:25:08.168Z,67.47
2022-11-28T09:27:34.962Z,67.32
2022-11-28T09:30:01.969Z,67.21
2022-11-28T09:32:28.680Z,67.42
2022-11-28T09:34:55.369Z,67.38
2022-11-28T09:37:22.124Z,67.82
2022-11-28T09:40:11.578Z,67.71
2022-11-28T09:42:43.574Z,67.79
2022-11-28T09:45:22.030Z,67.78
2022-11-28T09:47:54.175Z,67.79
2022-11-28T09:50:32.846Z,68.16
2022-11-28T09:53:28.723Z,68.14
2022-11-28T09:56:00.034Z,67.36
2022-11-28T09:58:45.818Z,67.58
2022-11-28T10:01:28.621Z,67.15
2022-11-28T10:04:04.181Z,66.79
2022-11-28T10:07:06.375Z,66.52
2022-11-28T10:09:52.104Z,66.65
2022-11-28T10:12:48.118Z,66.57
2022-11-28T10:15:29.650Z,66.15
2022-11-28T10:18:07.624Z,65.80
2022-11-28T10:20:41.898Z,66.10
2022-11-28T10:23:32.647Z,66.42
2022-11-28T10:26:07.658Z,65.94
2022-11-28T10:28:38.970Z,64.94
2022-11-28T10:31:15.840Z,65.44
2022-11-28T10:33:55.008Z,64.83
2022-11-28T10:36:30.351Z,64.70
2022-11-28T10:39:00.854Z,64.81
2022-11-28T10:41:36.810Z,65.19
2022-11-28T10:44:10.468Z,65.29
2022-11-28T10:46:50.792Z,65.47
2022-11-28T10:49:33.484Z,65.30
2022-11-28T10:52:08.209Z,65.46
2022-11-28T10:55:07.431Z,64.73
2022-11-28T10:57:43.924Z,64.88
2022-11-28T11:00:18.823Z,64.81
2022-11-28T11:02:55.867Z,64.31
2022-11-28T11:05:34.240Z,64.34
2022-11-28T11:08:24.944Z,63.86
2022-11-28T11:10:59.929Z,63.80
2022-11-28T11:13:34.196Z,63.95
2022-11-28T11:16:04.500Z,63.66
2022-11-28T11:18:31.313Z,63.13
2022-11-28T11:21:08.591Z,63.29
2022-11-28T11:23:38.467Z,63.50
2022-11-28T11:26:10.383Z,63.58
2022-11-28T11:28:47.023Z,63.89
2022-11-28T11:31:30.253Z,63.55
2022-11-28T11:34:07.585Z,64.01
2022-11-28T11:36:36.611Z,63.71
2022-11-28T11:39:19.061Z,64.34
2022-11-28T11:41:51.431Z,64.20
2022-11-28T11:44:29.266Z,64.69
2022-11-28T11:46:57.428Z,64.63
2022-11-28T11:49:30.042Z,64.74
2022-11-28T11:51:58.363Z,64.41
2022-11-28T11:54:25.211Z,64.34
2022-11-28T11:57:05.736Z,64.60
2022-11-28T11:59:50.600Z,64.58
2022-11-28T12:02:31.115Z,64.38
2022-11-28T12:05:19.456Z,64.38
2022-11-28T12:08:03.534Z,64.35
2022-11-28T12:10:34.502Z,64.13
2022-11-28T12:13:04.654Z,64.31
2022-11-28T12:15:45.662Z,63.75
2022-11-28T12:18:36.949Z,64.13
2022-11-28T12:21:13.860Z,63.95
2022-11-28T12:24:03.610Z,64.85
2022-11-28T12:26:54.769Z,64.82
2022-11-28T12:29:57.792Z,64.76
2022-11-28T12:32:42.844Z,63.98
2022-11-28T12:35:21.445Z,63.99
2022-11-28T12:38:10.464Z,63.90
2022-11-28T12:40:44.002Z,64.33
2022-11-28T12:43:21.443Z,64.48
2022-11-28T12:45:51.096Z,64.59
2022-11-28T12:48:23.660Z,64.31
2022-11-28T12:51:16.024Z,64.21
2022-11-28T12:54:20.110Z,64.08
2022-11-28T12:56:53.696Z,63.79
2022-11-28T12:59:40.064Z,62.63
2022-11-28T13:02:28.674Z,62.50
2022-11-28T13:05:17.577Z,62.54
2022-11-28T13:08:16.593Z,62.49
2022-11-28T13:11:10.981Z,63.08
2022-11-28T13:13:55.074Z,62.86
2022-11-28T13:16:43.844Z,63.15
2022-11-28T13:19:32.398Z,64.20
2022-11-28T13:22:14.739Z,63.63
2022-11-28T13:24:50.726Z,63.95
2022-11-28T13:27:25.511Z,64.31
2022-11-28T13:30:26.658Z,64.41
2022-11-28T13:33:31.900Z,64.69
2022-11-28T13:36:00.626Z,65.19
2022-11-28T13:39:11.264Z,64.82
2022-11-28T13:45:00.225Z,64.57
2022-11-28T13:47:31.373Z,64.30
2022-11-28T13:50:29.965Z,64.13
2022-11-28T13:53:12.635Z,63.69
2022-11-28T13:55:47.704Z,63.16
2022-11-28T13:58:28.768Z,63.21
2022-11-28T14:01:17.770Z,63.58
2022-11-28T14:03:46.787Z,63.99
2022-11-28T14:06:19.507Z,64.01
2022-11-28T14:08:50.054Z,64.26
2022-11-28T14:11:28.151Z,64.16
2022-11-28T14:14:27.800Z,64.69
2022-11-28T14:17:15.759Z,64.56
2022-11-28T14:20:05.609Z,65.11
2022-11-28T14:22:47.604Z,64.91
2022-11-28T14:25:23.627Z,65.04
2022-11-28T14:28:20.295Z,64.87
2022-11-28T14:30:49.214Z,65.14
2022-11-28T14:33:34.640Z,65.19
2022-11-28T14:36:06.260Z,64.49
2022-11-28T14:38:33.813Z,64.38
2022-11-28T14:41:05.287Z,64.64
2022-11-28T14:43:34.462Z,64.50
2022-11-28T14:46:19.470Z,64.87
2022-11-28T14:48:59.156Z,64.54
2022-11-28T14:52:30.732Z,65.24
2022-11-28T14:54:53.492Z,64.99
2022-11-28T14:57:25.561Z,65.29
2022-11-28T14:59:54.606Z,65.00
2022-11-28T15:02:34.623Z,65.12
2022-11-28T15:05:24.149Z,65.06
2022-11-28T15:07:50.838Z,64.88
2022-11-28T15:10:29.788Z,65.50
2022-11-28T15:13:19.136Z,65.62
2022-11-28T15:15:49.909Z,65.52
2022-11-28T15:18:22.223Z,65.87
2022-11-28T15:20:55.239Z,65.55
2022-11-28T15:23:23.757Z,65.75
2022-11-28T15:25:55.712Z,66.13
2022-11-28T15:28:25.368Z,66.21
2022-11-28T15:30:53.247Z,66.41
2022-11-28T15:33:21.253Z,66.54
2022-11-28T15:36:10.688Z,66.38
2022-11-28T15:38:41.229Z,66.67
2022-11-28T15:41:08.228Z,67.06
2022-11-28T15:43:38.256Z,67.27
2022-11-28T15:46:05.935Z,67.40
2022-11-28T15:48:46.924Z,67.47
2022-11-28T15:51:32.595Z,67.83
2022-11-28T15:54:00.506Z,67.95
2022-11-28T15:56:29.611Z,67.76
2022-11-28T15:58:56.387Z,67.65
2022-11-28T16:01:25.885Z,67.98
2022-11-28T16:04:10.724Z,67.64
2022-11-28T16:06:39.821Z,67.62
2022-11-28T16:09:23.179Z,67.39
2022-11-28T16:11:53.222Z,67.49
2022-11-28T16:14:30.799Z,67.25
2022-11-28T16:16:59.308Z,67.41
2022-11-28T16:19:32.779Z,67.52
2022-11-28T16:22:11.676Z,67.85
2022-11-28T16:24:48.865Z,68.06
2022-11-28T16:27:35.616Z,68.07
2022-11-28T16:30:24.602Z,68.09
2022-11-28T16:32:52.998Z,68.06
2022-11-28T16:35:30.958Z,68.30
2022-11-28T16:38:21.142Z,68.73
2022-11-28T16:40:48.197Z,69.11
2022-11-28T16:43:28.331Z,69.17
2022-11-28T16:46:00.209Z,69.42
2022-11-28T16:48:30.560Z,68.89
2022-11-28T16:51:26.532Z,69.37
2022-11-28T16:53:55.539Z,69.22
2022-11-28T16:56:44.357Z,69.71
2022-11-28T16:59:16.641Z,70.23
2022-11-28T17:01:48.984Z,70.42
2022-11-28T17:04:30.705Z,70.00
2022-11-28T17:07:05.066Z,69.91
2022-11-28T17:09:33.856Z,70.54
2022-11-28T17:12:26.669Z,70.73
2022-11-28T17:14:54.009Z,70.76
2022-11-28T17:17:23.296Z,70.70
2022-11-28T17:19:50.267Z,70.71
2022-11-28T17:22:20.207Z,70.44
2022-11-28T17:24:48.578Z,70.52
2022-11-28T17:27:16.612Z,70.57
2022-11-28T17:29:43.793Z,70.26
2022-11-28T17:32:14.698Z,70.54
2022-11-28T17:34:42.439Z,70.47
2022-11-28T17:37:10.013Z,70.78
2022-11-28T17:39:36.697Z,70.45
2022-11-28T17:42:05.001Z,70.24
2022-11-28T17:44:34.694Z,70.33
2022-11-28T17:47:02.230Z,70.59
2022-11-28T17:49:30.817Z,70.70
2022-11-28T17:51:58.780Z,70.41
2022-11-28T17:54:26.965Z,70.26
2022-11-28T17:56:54.669Z,70.10
2022-11-28T17:59:23.752Z,70.97
2022-11-28T18:01:50.834Z,70.67
2022-11-28T18:04:23.387Z,70.98
2022-11-28T18:06:50.137Z,70.67
2022-11-28T18:09:16.977Z,71.05
2022-11-28T18:11:46.651Z,71.34
2022-11-28T18:14:14.586Z,71.33
2022-11-28T18:16:43.895Z,71.75
2022-11-28T18:19:10.961Z,71.96
2022-11-28T18:21:38.744Z,71.66
2022-11-28T18:24:05.707Z,72.13
2022-11-28T18:26:32.751Z,71.73
2022-11-28T18:28:59.480Z,71.49
2022-11-28T18:31:28.988Z,71.49
2022-11-28T18:34:02.076Z,71.20
2022-11-28T18:36:33.827Z,71.08
2022-11-28T18:39:04.332Z,71.02
2022-11-28T18:41:31.875Z,71.41
2022-11-28T18:44:01.802Z,71.14
2022-11-28T18:46:29.842Z,71.26
2022-11-28T18:48:57.204Z,70.56
2022-11-28T18:51:25.326Z,70.37
2022-11-28T18:53:53.329Z,70.66
2022-11-28T18:56:21.250Z,70.46
2022-11-28T18:58:53.955Z,70.50
2022-11-28T19:01:34.557Z,70.44
2022-11-28T19:04:07.357Z,70.54
2022-11-28T19:06:37.627Z,70.33
2022-11-28T19:09:06.884Z,70.46
2022-11-28T19:11:33.955Z,70.23
2022-11-28T19:14:01.752Z,70.59
2022-11-28T19:16:33.129Z,70.75
2022-11-28T19:19:01.559Z,70.71
2022-11-28T19:21:32.687Z,70.91
2022-11-28T19:24:00.709Z,70.91
2022-11-28T19:26:30.657Z,70.99
2022-11-28T19:28:59.888Z,71.02
2022-11-28T19:31:30.286Z,71.48
2022-11-28T19:34:03.595Z,71.48
2022-11-28T19:36:41.079Z,71.20
2022-11-28T19:39:17.060Z,71.33
2022-11-28T19:41:45.210Z,71.49
2022-11-28T19:44:13.537Z,71.41
2022-11-28T19:46:41.324Z,71.72
2022-11-28T19:49:14.256Z,71.32
2022-11-28T19:51:40.906Z,71.75
2022-11-28T19:54:08.158Z,71.72
2022-11-28T19:56:35.407Z,71.76
2022-11-28T19:59:02.451Z,71.75
2022-11-28T20:01:29.224Z,72.14
2022-11-28T20:03:57.639Z,72.37
2022-11-28T20:06:29.769Z,72.04
2022-11-28T20:09:00.830Z,71.44
2022-11-28T20:11:31.579Z,71.50
2022-11-28T20:14:15.143Z,71.75
2022-11-28T20:16:42.850Z,72.06
2022-11-28T20:19:11.144Z,72.13
2022-11-28T20:21:37.965Z,71.34
2022-11-28T20:24:07.447Z,71.52
2022-11-28T20:26:44.414Z,71.44
2022-11-28T20:29:15.565Z,71.49
2022-11-28T20:31:46.291Z,71.14
2022-11-28T20:34:16.634Z,71.13
2022-11-28T20:36:44.006Z,71.52
2022-11-28T20:39:11.845Z,71.48
2022-11-28T20:41:38.798Z,71.37
2022-11-28T20:44:05.746Z,71.09
2022-11-28T20:46:34.118Z,71.41
2022-11-28T20:49:03.891Z,71.69
2022-11-28T20:51:33.247Z,71.19
2022-11-28T20:54:00.649Z,71.35
2022-11-28T20:56:30.418Z,71.59
2022-11-28T20:59:02.453Z,71.48
2022-11-28T21:01:33.759Z,71.76
2022-11-28T21:04:02.895Z,72.02
2022-11-28T21:06:30.076Z,71.72
2022-11-28T21:08:57.468Z,71.81
2022-11-28T21:14:15.460Z,71.99
2022-11-28T21:16:42.562Z,72.04
2022-11-28T21:19:09.497Z,71.80
2022-11-28T21:21:38.696Z,71.58
2022-11-28T21:24:10.425Z,71.78
2022-11-28T21:26:45.258Z,71.35
2022-11-28T21:29:16.449Z,71.64
2022-11-28T21:31:44.885Z,71.07
2022-11-28T21:34:15.140Z,71.25
2022-11-28T21:36:42.664Z,71.18
2022-11-28T21:39:14.530Z,71.26
2022-11-28T21:41:41.450Z,71.36
2022-11-28T21:44:08.847Z,71.12
2022-11-28T21:46:35.850Z,71.07
2022-11-28T21:49:02.677Z,71.06
2022-11-28T21:51:29.578Z,71.02
2022-11-28T21:53:59.930Z,71.03
2022-11-28T21:56:27.466Z,71.66
2022-11-28T21:58:54.317Z,71.09
2022-11-28T22:01:21.612Z,71.11
2022-11-28T22:03:49.003Z,71.42
2022-11-28T22:06:22.482Z,71.55
2022-11-28T22:08:49.937Z,71.83
2022-11-28T22:11:17.666Z,71.42
2022-11-28T22:13:46.020Z,71.58
2022-11-28T22:16:12.869Z,71.78
2022-11-28T22:18:39.702Z,71.76
2022-11-28T22:21:28.625Z,71.36
2022-11-28T22:23:58.358Z,72.01
2022-11-28T22:26:25.098Z,71.61
2022-11-28T22:28:53.770Z,71.66
2022-11-28T22:31:22.863Z,71.73
2022-11-28T22:33:50.477Z,71.84
2022-11-28T22:36:45.611Z,71.79
2022-11-28T22:39:12.412Z,71.74
2022-11-28T22:41:39.777Z,71.62
2022-11-28T22:44:06.781Z,71.71
2022-11-28T22:46:33.733Z,72.03
2022-11-28T22:49:01.803Z,71.60
2022-11-28T22:51:31.289Z,71.60
2022-11-28T22:54:01.073Z,71.58
2022-11-28T22:56:31.188Z,71.84
2022-11-28T22:58:58.939Z,72.11
2022-11-28T23:01:29.552Z,71.82
2022-11-28T23:03:56.806Z,72.14
2022-11-28T23:06:26.914Z,71.84
2022-11-28T23:08:55.750Z,71.79
2022-11-28T23:11:26.422Z,71.59
2022-11-28T23:13:54.128Z,71.89
2022-11-28T23:16:24.386Z,71.36
2022-11-28T23:18:54.480Z,71.27
2022-11-28T23:21:23.047Z,71.94
2022-11-28T23:23:50.121Z,71.91
2022-11-28T23:26:19.972Z,71.74
2022-11-28T23:28:47.714Z,71.95
2022-11-28T23:31:20.356Z,71.78
2022-11-28T23:33:48.507Z,72.09
2022-11-28T23:36:22.299Z,71.97
2022-11-28T23:38:52.353Z,72.15
2022-11-28T23:41:19.277Z,72.08
2022-11-28T23:43:46.564Z,71.95
2022-11-28T23:46:14.672Z,71.89
2022-11-28T23:48:43.600Z,71.42
2022-11-28T23:51:15.238Z,72.00
2022-11-28T23:53:43.101Z,71.98
2022-11-28T23:56:14.121Z,71.99
2022-11-28T23:58:41.364Z,71.68
